Time;durP1;ratioP1;P1;durP2;ratioP2;P2;SDS_P1;SDS_P2;PMS_P1;PMS_P2;Temp;Humidity;BMP_temperature;BMP_pressure;BME280_temperature;BME280_humidity;BME280_pressure;Samples;Min_cycle;Max_cycle;Signal;HPM_P1;HPM_P2
2024/03/19 00:02:09;;;;;;;19.48;8.52;;;10.40;99.90;;;;;;6307765;22;39168;-77
2024/03/19 00:04:35;;;;;;;11.18;7.18;;;10.40;99.90;;;;;;6280362;22;35982;-77
2024/03/19 00:07:01;;;;;;;17.77;8.07;;;10.40;99.90;;;;;;6280546;22;38653;-77
2024/03/19 00:09:28;;;;;;;15.40;8.40;;;10.40;99.90;;;;;;6304032;22;49744;-77
2024/03/19 00:11:54;;;;;;;18.13;8.77;;;10.40;99.90;;;;;;6275953;22;38163;-77
2024/03/19 00:14:20;;;;;;;26.63;9.15;;;10.40;99.90;;;;;;6304246;22;37335;-77
2024/03/19 00:16:46;;;;;;;18.63;7.72;;;10.40;99.90;;;;;;6276653;22;38778;-77
2024/03/19 00:19:12;;;;;;;15.10;7.45;;;10.40;99.90;;;;;;6279278;22;38984;-77
2024/03/19 00:21:40;;;;;;;12.50;6.90;;;10.40;99.90;;;;;;6277856;22;37373;-77
2024/03/19 00:24:08;;;;;;;12.27;6.72;;;10.40;99.90;;;;;;6276644;22;36060;-77
2024/03/19 00:26:36;;;;;;;15.35;6.82;;;10.40;99.90;;;;;;6274739;22;37851;-77
2024/03/19 00:29:02;;;;;;;13.13;7.13;;;10.40;99.90;;;;;;6303298;22;39817;-77
2024/03/19 00:31:28;;;;;;;17.08;6.95;;;10.40;99.90;;;;;;6276366;22;37385;-77
2024/03/19 00:33:55;;;;;;;12.00;6.82;;;10.40;99.90;;;;;;6279365;22;37124;-78
2024/03/19 00:36:21;;;;;;;14.93;6.57;;;10.50;99.90;;;;;;6281506;22;37934;-77
2024/03/19 00:38:48;;;;;;;12.55;6.45;;;10.50;99.90;;;;;;6311361;22;39194;-77
2024/03/19 00:41:14;;;;;;;15.18;6.78;;;10.50;99.90;;;;;;6281151;22;38471;-77
2024/03/19 00:43:40;;;;;;;14.82;6.50;;;10.50;99.90;;;;;;6283805;22;36914;-77
2024/03/19 00:46:06;;;;;;;12.10;6.47;;;10.50;99.90;;;;;;6286118;22;39058;-78
2024/03/19 00:48:32;;;;;;;14.93;6.43;;;10.50;99.90;;;;;;6313181;22;39198;-77
2024/03/19 00:50:58;;;;;;;13.33;6.47;;;10.50;99.90;;;;;;6314456;22;38864;-77
2024/03/19 00:53:24;;;;;;;14.93;5.67;;;10.50;99.90;;;;;;6282778;22;36287;-77
2024/03/19 00:55:50;;;;;;;9.93;5.33;;;10.50;99.90;;;;;;6286919;22;37595;-77
2024/03/19 00:58:19;;;;;;;11.20;6.22;;;10.50;99.90;;;;;;6313810;22;39730;-78
2024/03/19 01:00:46;;;;;;;20.10;6.37;;;10.50;99.90;;;;;;6281888;22;38048;-77
2024/03/19 01:03:14;;;;;;;13.65;6.25;;;10.50;99.90;;;;;;6307193;22;37783;-77
2024/03/19 01:05:40;;;;;;;11.35;5.10;;;10.50;99.90;;;;;;6309682;22;39721;-77
2024/03/19 01:08:07;;;;;;;14.63;5.63;;;10.50;99.90;;;;;;6310125;22;38986;-77
2024/03/19 01:10:34;;;;;;;9.03;5.83;;;10.50;99.90;;;;;;6283935;22;39018;-77
2024/03/19 01:13:00;;;;;;;10.83;5.23;;;10.50;99.90;;;;;;6279262;22;36195;-76
2024/03/19 01:15:28;;;;;;;16.17;5.43;;;10.50;99.90;;;;;;6309293;22;41161;-77
2024/03/19 01:17:54;;;;;;;14.65;5.43;;;10.50;99.90;;;;;;6307127;22;39419;-77
2024/03/19 01:20:20;;;;;;;7.97;4.90;;;10.50;99.90;;;;;;6307031;22;39557;-77
2024/03/19 01:22:47;;;;;;;15.60;5.07;;;10.50;99.90;;;;;;6282277;22;38859;-77
2024/03/19 01:25:13;;;;;;;10.13;5.03;;;10.50;99.90;;;;;;6278614;22;38614;-77
2024/03/19 01:27:40;;;;;;;10.57;4.38;;;10.50;99.90;;;;;;6282273;22;40240;-76
2024/03/19 01:30:06;;;;;;;9.37;5.13;;;10.40;99.90;;;;;;6280714;22;39785;-77
2024/03/19 01:32:32;;;;;;;13.17;4.83;;;10.50;99.90;;;;;;6309918;22;36416;-77
2024/03/19 01:34:58;;;;;;;10.40;5.20;;;10.40;99.90;;;;;;6284895;22;39914;-78
2024/03/19 01:37:25;;;;;;;11.80;5.17;;;10.40;99.90;;;;;;6286601;22;39756;-77
2024/03/19 01:39:52;;;;;;;11.37;6.03;;;10.40;99.90;;;;;;6315850;22;38332;-76
2024/03/19 01:42:21;;;;;;;10.87;5.60;;;10.30;99.90;;;;;;6283025;22;37383;-77
2024/03/19 01:44:47;;;;;;;12.83;4.70;;;10.30;99.90;;;;;;6313035;22;38439;-77
2024/03/19 01:47:13;;;;;;;11.00;5.20;;;10.30;99.90;;;;;;6280813;22;39249;-76
2024/03/19 01:49:39;;;;;;;12.10;5.17;;;10.30;99.90;;;;;;6307375;22;38692;-76
2024/03/19 01:52:06;;;;;;;11.43;4.70;;;10.30;99.90;;;;;;6278260;22;38687;-76
2024/03/19 01:54:33;;;;;;;13.27;4.57;;;10.30;99.90;;;;;;6307499;22;39289;-76
2024/03/19 01:57:00;;;;;;;9.73;4.77;;;10.20;99.90;;;;;;6305133;22;40129;-78
2024/03/19 01:59:26;;;;;;;9.57;4.33;;;10.30;99.90;;;;;;6305269;22;47651;-77
2024/03/19 02:04:28;;;;;;;11.30;4.30;;;10.30;99.90;;;;;;6303235;22;20027;-77
2024/03/19 02:06:54;;;;;;;13.13;4.20;;;10.40;99.90;;;;;;6279942;22;37714;-76
2024/03/19 02:09:20;;;;;;;10.75;4.30;;;10.40;99.90;;;;;;6279455;22;37344;-76
2024/03/19 02:11:46;;;;;;;13.73;4.70;;;10.40;99.90;;;;;;6278672;22;38175;-76
2024/03/19 02:14:13;;;;;;;13.67;4.67;;;10.40;99.90;;;;;;6277900;22;40816;-77
2024/03/19 02:16:39;;;;;;;11.23;4.72;;;10.50;99.90;;;;;;6308178;22;38994;-77
2024/03/19 02:19:05;;;;;;;11.40;4.47;;;10.50;99.90;;;;;;6279614;22;38817;-77
2024/03/19 02:21:33;;;;;;;10.53;5.03;;;10.50;99.90;;;;;;6306906;22;38279;-77
2024/03/19 02:24:01;;;;;;;8.85;4.57;;;10.50;99.90;;;;;;6306948;22;38978;-77
2024/03/19 02:29:13;;;;;;;14.15;5.50;;;10.50;99.90;;;;;;6284327;22;20031;-77
2024/03/19 02:31:40;;;;;;;11.73;4.37;;;10.50;99.90;;;;;;6305856;22;38091;-77
2024/03/19 02:34:06;;;;;;;14.30;5.67;;;10.50;99.90;;;;;;6278490;22;37850;-77
2024/03/19 02:36:32;;;;;;;12.53;5.20;;;10.50;99.90;;;;;;6306413;22;38994;-77
2024/03/19 02:38:58;;;;;;;14.23;5.50;;;10.50;99.90;;;;;;6280597;22;38410;-77
2024/03/19 02:41:24;;;;;;;11.73;5.22;;;10.50;99.90;;;;;;6278562;22;37462;-77
2024/03/19 02:43:51;;;;;;;10.07;5.03;;;10.50;99.90;;;;;;6307619;22;39477;-76
2024/03/19 02:46:17;;;;;;;10.40;4.73;;;10.50;99.90;;;;;;6279049;22;39133;-77
2024/03/19 02:48:44;;;;;;;16.67;6.27;;;10.50;99.90;;;;;;6307719;22;39522;-77
2024/03/19 02:51:10;;;;;;;13.13;5.28;;;10.50;99.90;;;;;;6311491;22;37718;-77
2024/03/19 02:53:36;;;;;;;12.77;5.83;;;10.40;99.90;;;;;;6298251;22;37982;-77
2024/03/19 02:56:03;;;;;;;16.45;5.68;;;10.40;99.90;;;;;;6320924;22;39708;-77
2024/03/19 02:58:29;;;;;;;15.65;4.85;;;10.40;99.90;;;;;;6282818;22;40137;-77
2024/03/19 03:00:55;;;;;;;16.37;6.17;;;10.40;99.90;;;;;;6285096;22;39368;-77
2024/03/19 03:03:21;;;;;;;18.67;6.07;;;10.30;99.90;;;;;;6312150;22;38763;-76
2024/03/19 03:05:48;;;;;;;12.57;5.20;;;10.30;99.90;;;;;;6282160;22;40302;-76
2024/03/19 03:08:14;;;;;;;16.60;5.40;;;10.30;99.90;;;;;;6310816;22;39783;-77
2024/03/19 03:10:40;;;;;;;14.63;6.13;;;10.20;99.90;;;;;;6309498;22;38133;-77
2024/03/19 03:13:07;;;;;;;22.63;6.43;;;10.20;99.90;;;;;;6308662;22;39203;-77
2024/03/19 03:15:33;;;;;;;12.50;5.47;;;10.10;99.90;;;;;;6307859;22;39150;-76
2024/03/19 03:17:59;;;;;;;13.40;5.40;;;10.10;99.90;;;;;;6307485;22;38217;-76
2024/03/19 03:20:26;;;;;;;18.33;5.43;;;10.20;99.90;;;;;;6279537;22;38607;-76
2024/03/19 03:22:52;;;;;;;11.57;5.10;;;10.20;99.90;;;;;;6279933;22;39228;-75
2024/03/19 03:25:20;;;;;;;19.17;5.97;;;10.20;99.90;;;;;;6305678;22;38648;-76
2024/03/19 03:27:46;;;;;;;17.03;5.00;;;10.30;99.90;;;;;;6279148;22;37541;-76
2024/03/19 03:30:13;;;;;;;11.07;5.00;;;10.30;99.90;;;;;;6305057;22;36710;-76
2024/03/19 03:32:42;;;;;;;12.13;5.28;;;10.40;99.90;;;;;;6306786;22;38292;-76
2024/03/19 03:35:09;;;;;;;12.20;5.00;;;10.40;99.90;;;;;;6306458;22;39778;-76
2024/03/19 03:37:35;;;;;;;11.60;4.63;;;10.40;99.90;;;;;;6308509;22;38213;-76
2024/03/19 03:40:17;;;;;;;14.15;4.38;;;10.40;99.90;;;;;;6306905;22;37247;-76
2024/03/19 03:42:44;;;;;;;22.38;5.40;;;10.50;99.90;;;;;;6281138;22;46991;-76
2024/03/19 03:45:11;;;;;;;15.50;5.50;;;10.50;99.90;;;;;;6307234;22;39980;-76
2024/03/19 03:47:41;;;;;;;9.43;4.03;;;10.50;99.90;;;;;;6307726;22;38582;-76
2024/03/19 03:50:09;;;;;;;16.33;4.37;;;10.60;99.90;;;;;;6307107;22;36774;-76
2024/03/19 03:52:37;;;;;;;8.50;3.87;;;10.60;99.90;;;;;;6281505;22;37565;-76
2024/03/19 03:55:05;;;;;;;10.88;3.67;;;10.60;99.90;;;;;;6280150;22;39008;-76
2024/03/19 03:57:35;;;;;;;8.17;3.37;;;10.60;99.90;;;;;;6307149;22;47769;-76
2024/03/19 04:00:04;;;;;;;9.05;3.55;;;10.70;99.90;;;;;;6307726;22;37160;-76
2024/03/19 04:02:31;;;;;;;10.27;3.60;;;10.70;99.90;;;;;;6306035;22;38715;-76
2024/03/19 04:04:57;;;;;;;8.15;3.42;;;10.70;99.90;;;;;;6280674;22;38874;-76
2024/03/19 04:07:23;;;;;;;8.15;3.58;;;10.70;99.90;;;;;;6277184;22;38933;-76
2024/03/19 04:09:49;;;;;;;9.40;4.28;;;10.70;99.90;;;;;;6280453;22;38890;-77
2024/03/19 04:12:15;;;;;;;14.20;3.40;;;10.70;99.90;;;;;;6307459;22;38565;-76
2024/03/19 04:14:41;;;;;;;10.38;3.75;;;10.70;99.90;;;;;;6282104;22;39409;-77
2024/03/19 04:17:07;;;;;;;5.55;3.15;;;10.70;99.90;;;;;;6279261;22;40196;-76
2024/03/19 04:19:33;;;;;;;12.10;3.55;;;10.70;99.90;;;;;;6309265;22;37490;-76
2024/03/19 04:22:00;;;;;;;7.80;3.40;;;10.70;99.90;;;;;;6280995;22;39712;-78
2024/03/19 04:24:26;;;;;;;11.35;3.75;;;10.70;99.90;;;;;;6281967;22;38177;-77
2024/03/19 04:26:53;;;;;;;8.10;3.70;;;10.70;99.90;;;;;;6281786;22;40061;-76
2024/03/19 04:29:19;;;;;;;8.13;3.58;;;10.70;99.90;;;;;;6309277;22;38247;-76
2024/03/19 04:31:45;;;;;;;8.85;3.70;;;10.70;99.90;;;;;;6283056;22;37602;-75
2024/03/19 04:34:12;;;;;;;10.10;3.77;;;10.70;99.90;;;;;;6281979;22;39575;-76
2024/03/19 04:36:38;;;;;;;10.13;3.65;;;10.70;99.90;;;;;;6311683;22;38256;-76
2024/03/19 04:39:10;;;;;;;7.13;3.72;;;10.70;99.90;;;;;;6281933;22;37743;-76
2024/03/19 04:41:39;;;;;;;9.87;4.17;;;10.70;99.90;;;;;;6310034;22;39943;-76
2024/03/19 04:44:06;;;;;;;12.88;3.75;;;10.80;99.90;;;;;;6282207;22;40690;-76
2024/03/19 04:46:33;;;;;;;11.02;4.40;;;10.70;99.90;;;;;;6283104;22;39525;-76
2024/03/19 04:49:00;;;;;;;7.80;3.88;;;10.80;99.90;;;;;;6310444;22;36987;-76
2024/03/19 04:51:26;;;;;;;13.63;4.00;;;10.80;99.90;;;;;;6309116;22;38900;-76
2024/03/19 04:53:53;;;;;;;8.57;3.63;;;10.80;99.90;;;;;;6282449;22;39866;-76
2024/03/19 04:56:20;;;;;;;12.07;3.42;;;10.80;99.90;;;;;;6281072;22;38870;-76
2024/03/19 04:58:46;;;;;;;6.93;3.63;;;10.80;99.90;;;;;;6281423;22;37883;-76
2024/03/19 05:01:15;;;;;;;11.25;4.32;;;10.80;99.90;;;;;;6280562;22;40962;-76
2024/03/19 05:03:41;;;;;;;8.48;3.50;;;10.80;99.90;;;;;;6310761;22;38587;-77
2024/03/19 05:06:08;;;;;;;8.55;3.45;;;10.80;99.90;;;;;;6280873;22;39473;-77
2024/03/19 05:08:35;;;;;;;9.93;3.70;;;10.90;99.90;;;;;;6282628;22;36683;-77
2024/03/19 05:11:02;;;;;;;9.98;3.35;;;10.90;99.90;;;;;;6309261;22;39023;-77
2024/03/19 05:13:28;;;;;;;8.18;3.83;;;10.90;99.90;;;;;;6281419;22;39095;-77
2024/03/19 05:15:54;;;;;;;12.35;4.32;;;10.90;99.90;;;;;;6282284;22;39022;-76
2024/03/19 05:18:20;;;;;;;12.48;3.58;;;10.90;99.90;;;;;;6280166;22;36062;-77
2024/03/19 05:20:46;;;;;;;13.10;4.22;;;10.90;99.90;;;;;;6280407;22;38734;-76
2024/03/19 05:23:12;;;;;;;12.30;4.45;;;10.90;99.90;;;;;;6282396;22;37565;-76
2024/03/19 05:25:39;;;;;;;8.35;3.70;;;10.90;99.90;;;;;;6281760;22;38506;-76
2024/03/19 05:28:05;;;;;;;11.88;4.05;;;10.90;99.90;;;;;;6308917;22;38280;-76
2024/03/19 05:30:34;;;;;;;10.43;4.25;;;10.90;99.90;;;;;;6279380;22;37668;-77
2024/03/19 05:33:00;;;;;;;10.25;4.40;;;10.90;99.90;;;;;;6309243;22;39376;-77
2024/03/19 05:35:26;;;;;;;12.27;4.40;;;11.00;99.90;;;;;;6281468;22;39627;-77
2024/03/19 05:37:53;;;;;;;7.85;4.10;;;11.00;99.90;;;;;;6284966;22;37798;-77
2024/03/19 05:40:20;;;;;;;11.43;4.68;;;11.00;99.90;;;;;;6312459;22;39896;-76
2024/03/19 05:42:46;;;;;;;14.52;4.97;;;11.00;99.90;;;;;;6312962;22;40040;-77
2024/03/19 05:45:13;;;;;;;15.50;5.25;;;11.00;99.90;;;;;;6323747;22;39587;-77
2024/03/19 05:47:40;;;;;;;15.50;5.13;;;10.90;99.90;;;;;;6294160;22;35647;-76
2024/03/19 05:50:10;;;;;;;12.95;5.05;;;10.90;99.90;;;;;;6313593;22;39372;-76
2024/03/19 05:52:38;;;;;;;12.60;5.13;;;10.90;99.90;;;;;;6308579;22;49007;-77
2024/03/19 05:55:04;;;;;;;10.25;4.68;;;10.90;99.90;;;;;;6308771;22;38516;-77
2024/03/19 05:57:30;;;;;;;11.45;5.45;;;10.90;99.90;;;;;;6276701;22;46894;-76
2024/03/19 05:59:57;;;;;;;13.18;4.40;;;10.90;99.90;;;;;;6279839;22;40808;-77
2024/03/19 06:02:23;;;;;;;8.38;4.05;;;10.90;99.90;;;;;;6304506;22;38636;-76
2024/03/19 06:04:49;;;;;;;8.68;3.70;;;10.90;99.90;;;;;;6281057;22;37191;-76
2024/03/19 06:07:15;;;;;;;11.73;4.47;;;10.90;99.90;;;;;;6304867;22;37097;-77
2024/03/19 06:09:44;;;;;;;9.25;3.83;;;11.00;99.90;;;;;;6306404;22;38608;-77
2024/03/19 06:12:11;;;;;;;9.00;3.10;;;11.00;99.90;;;;;;6308947;22;39582;-76
2024/03/19 06:14:37;;;;;;;10.40;3.13;;;11.00;99.90;;;;;;6278795;22;37236;-76
2024/03/19 06:17:03;;;;;;;9.32;3.30;;;11.00;99.90;;;;;;6306228;22;37008;-76
2024/03/19 06:19:29;;;;;;;7.75;2.97;;;11.00;99.90;;;;;;6278980;22;40606;-77
2024/03/19 06:21:56;;;;;;;8.35;3.05;;;11.00;99.90;;;;;;6306405;22;38491;-76
2024/03/19 06:24:22;;;;;;;10.20;3.28;;;11.10;99.90;;;;;;6275700;22;39122;-77
2024/03/19 06:26:49;;;;;;;5.40;2.70;;;11.10;99.90;;;;;;6276510;22;35879;-77
2024/03/19 06:29:15;;;;;;;12.13;2.83;;;11.10;99.90;;;;;;6304149;22;39707;-77
2024/03/19 06:31:42;;;;;;;7.60;2.83;;;11.10;99.90;;;;;;6308266;22;38885;-77
2024/03/19 06:34:08;;;;;;;5.22;2.67;;;11.10;99.90;;;;;;6308180;22;38617;-78
2024/03/19 06:36:35;;;;;;;5.90;2.45;;;11.10;99.90;;;;;;6280595;22;37185;-77
2024/03/19 06:39:03;;;;;;;6.43;2.72;;;11.10;99.90;;;;;;6304421;22;40427;-77
2024/03/19 06:41:33;;;;;;;8.27;2.65;;;11.10;99.90;;;;;;6304874;22;38716;-78
2024/03/19 06:43:59;;;;;;;9.20;3.22;;;11.20;99.90;;;;;;6276073;22;40440;-77
2024/03/19 06:46:26;;;;;;;9.63;2.83;;;11.20;99.90;;;;;;6274166;22;36285;-77
2024/03/19 06:48:52;;;;;;;8.65;2.92;;;11.20;99.90;;;;;;6305275;22;39831;-76
2024/03/19 06:51:19;;;;;;;7.57;2.75;;;11.20;99.90;;;;;;6268741;22;40550;-76
2024/03/19 06:53:45;;;;;;;6.20;2.60;;;11.20;99.90;;;;;;6263021;22;37341;-77
2024/03/19 06:56:11;;;;;;;9.48;3.33;;;11.20;99.90;;;;;;6290721;22;37131;-77
2024/03/19 06:58:38;;;;;;;11.90;3.17;;;11.20;99.90;;;;;;6295050;22;38484;-77
2024/03/19 07:01:04;;;;;;;7.80;3.15;;;11.30;99.90;;;;;;6263519;22;40615;-77
2024/03/19 07:03:31;;;;;;;6.45;3.15;;;11.30;99.90;;;;;;6292423;22;38087;-77
2024/03/19 07:05:57;;;;;;;13.60;3.88;;;11.30;99.80;;;;;;6290757;22;38238;-77
2024/03/19 07:08:26;;;;;;;8.65;3.03;;;11.30;99.90;;;;;;6295453;22;38838;-77
2024/03/19 07:10:54;;;;;;;10.23;3.17;;;11.30;99.90;;;;;;6264586;22;38030;-77
2024/03/19 07:13:20;;;;;;;7.15;3.15;;;11.30;99.90;;;;;;6264067;22;38937;-77
2024/03/19 07:15:46;;;;;;;8.43;3.60;;;11.30;99.90;;;;;;6296418;22;37057;-78
2024/03/19 07:18:12;;;;;;;7.05;3.72;;;11.40;99.90;;;;;;6268279;22;38941;-78
2024/03/19 07:20:40;;;;;;;8.68;3.70;;;11.30;99.90;;;;;;6267011;22;38002;-80
2024/03/19 07:23:07;;;;;;;10.68;4.30;;;11.40;99.90;;;;;;6296619;22;39259;-78
2024/03/19 07:25:36;;;;;;;10.95;4.03;;;11.40;99.90;;;;;;6273079;22;36137;-78
2024/03/19 07:28:02;;;;;;;14.52;4.25;;;11.40;99.90;;;;;;6279269;22;37499;-78
2024/03/19 07:30:29;;;;;;;12.38;5.28;;;11.40;99.90;;;;;;6279008;22;38147;-79
2024/03/19 07:32:55;;;;;;;13.05;4.75;;;11.50;99.90;;;;;;6280624;22;38822;-80
2024/03/19 07:35:22;;;;;;;9.98;4.38;;;11.50;99.90;;;;;;6305746;22;37194;-79
2024/03/19 07:37:51;;;;;;;12.95;4.53;;;11.50;99.70;;;;;;6279755;22;37961;-80
2024/03/19 07:40:20;;;;;;;12.23;4.95;;;11.50;97.20;;;;;;6279059;22;38780;-79
2024/03/19 07:42:50;;;;;;;9.80;4.68;;;11.60;96.60;;;;;;6281976;22;37442;-80
2024/03/19 07:45:17;;;;;;;7.90;4.25;;;11.60;98.20;;;;;;6281462;22;37306;-80
2024/03/19 07:47:43;;;;;;;9.95;4.82;;;11.60;96.80;;;;;;6310769;22;38876;-79
2024/03/19 07:50:10;;;;;;;10.63;4.82;;;11.70;96.40;;;;;;6313682;22;38766;-79
2024/03/19 07:52:37;;;;;;;12.25;5.68;;;11.60;97.50;;;;;;6316687;22;38521;-79
2024/03/19 07:55:04;;;;;;;13.23;5.07;;;11.60;98.80;;;;;;6289430;22;36578;-78
2024/03/19 07:57:30;;;;;;;14.15;5.43;;;11.60;99.10;;;;;;6316508;22;40723;-78
2024/03/19 07:59:58;;;;;;;13.70;4.93;;;11.60;99.90;;;;;;6318107;22;39504;-78
2024/03/19 08:02:24;;;;;;;12.00;5.20;;;11.60;99.50;;;;;;6287996;22;39262;-78
2024/03/19 08:04:50;;;;;;;11.77;5.25;;;11.60;99.90;;;;;;6292968;22;36417;-78
2024/03/19 08:07:18;;;;;;;18.33;4.65;;;11.70;99.90;;;;;;6290518;22;38330;-78
2024/03/19 08:09:45;;;;;;;10.88;4.60;;;11.70;98.30;;;;;;6290824;22;39466;-79
2024/03/19 08:12:11;;;;;;;16.83;5.00;;;11.70;95.00;;;;;;6288743;22;38551;-79
2024/03/19 08:14:37;;;;;;;10.90;4.88;;;11.80;94.90;;;;;;6314749;22;38335;-80
2024/03/19 08:17:03;;;;;;;13.40;4.90;;;11.90;93.30;;;;;;6285339;22;39127;-80
2024/03/19 08:19:30;;;;;;;12.38;5.68;;;11.90;91.40;;;;;;6316004;22;38764;-80
2024/03/19 08:21:56;;;;;;;11.65;4.90;;;12.00;87.10;;;;;;6288862;22;37939;-79
2024/03/19 08:24:22;;;;;;;7.82;4.32;;;12.00;78.30;;;;;;6317823;22;37396;-80
2024/03/19 08:26:49;;;;;;;8.85;4.32;;;12.10;72.20;;;;;;6292890;22;38431;-80
2024/03/19 08:29:15;;;;;;;14.88;4.43;;;12.10;69.60;;;;;;6317845;22;39024;-79
2024/03/19 08:31:41;;;;;;;9.27;4.30;;;12.20;68.00;;;;;;6295212;22;37678;-80
2024/03/19 08:34:08;;;;;;;14.77;4.93;;;12.20;55.90;;;;;;6292786;22;36154;-79
2024/03/19 08:36:34;;;;;;;9.45;4.38;;;12.30;58.20;;;;;;6289409;22;39281;-80
2024/03/19 08:39:00;;;;;;;9.98;4.13;;;12.30;57.00;;;;;;6284084;22;37777;-80
2024/03/19 08:41:26;;;;;;;12.57;4.40;;;12.30;52.90;;;;;;6307713;22;38540;-79
2024/03/19 08:43:53;;;;;;;9.88;4.32;;;12.40;50.60;;;;;;6310020;22;36779;-79
2024/03/19 08:46:20;;;;;;;10.25;4.75;;;12.30;49.70;;;;;;6280886;22;37827;-79
2024/03/19 08:48:46;;;;;;;15.23;4.38;;;12.30;49.60;;;;;;6308628;22;39544;-79
2024/03/19 08:51:13;;;;;;;13.43;4.50;;;12.40;53.00;;;;;;6279100;22;38217;-79
2024/03/19 08:53:40;;;;;;;12.57;4.30;;;12.50;46.90;;;;;;6278958;22;37871;-79
2024/03/19 08:56:07;;;;;;;9.57;4.82;;;12.60;42.20;;;;;;6305593;22;38989;-79
2024/03/19 08:58:33;;;;;;;8.63;3.65;;;12.70;34.80;;;;;;6284034;22;37622;-80
2024/03/19 09:01:00;;;;;;;7.90;3.95;;;12.80;27.10;;;;;;6282125;22;39349;-80
2024/03/19 09:03:26;;;;;;;8.20;3.65;;;12.80;21.60;;;;;;6278926;22;39110;-79
2024/03/19 09:05:57;;;;;;;10.75;3.90;;;12.90;23.90;;;;;;6281352;22;40565;-79
2024/03/19 09:08:23;;;;;;;10.85;3.97;;;13.00;21.30;;;;;;6308657;22;39250;-79
2024/03/19 09:10:54;;;;;;;12.90;4.05;;;13.10;13.30;;;;;;6281028;22;39520;-80
2024/03/19 09:13:20;;;;;;;9.95;3.67;;;13.30;3.00;;;;;;6278721;22;36270;-79
2024/03/19 09:15:47;;;;;;;11.65;3.90;;;13.50;1.00;;;;;;6281494;22;38052;-80
2024/03/19 09:18:13;;;;;;;11.38;4.05;;;13.80;1.00;;;;;;6280272;22;38931;-80
2024/03/19 09:20:40;;;;;;;12.32;3.75;;;14.00;1.00;;;;;;6280531;22;37370;-80
2024/03/19 09:23:06;;;;;;;8.73;3.10;;;14.20;1.00;;;;;;6307979;22;38287;-80
2024/03/19 09:25:33;;;;;;;12.32;3.72;;;14.20;1.00;;;;;;6280431;22;38715;-79
2024/03/19 09:28:00;;;;;;;11.70;3.95;;;14.00;1.00;;;;;;6280396;22;40010;-79
2024/03/19 09:30:26;;;;;;;11.45;4.10;;;13.80;1.00;;;;;;6279132;22;37417;-79
2024/03/19 09:32:55;;;;;;;9.40;3.25;;;13.60;1.00;;;;;;6280169;22;37433;-79
2024/03/19 09:35:22;;;;;;;8.52;3.80;;;13.70;8.20;;;;;;6279448;22;39232;-80
2024/03/19 09:37:48;;;;;;;11.20;4.82;;;13.80;1.00;;;;;;6280626;22;39009;-79
2024/03/19 09:40:15;;;;;;;11.57;3.80;;;13.80;1.00;;;;;;6280001;22;39188;-79
2024/03/19 09:42:42;;;;;;;13.02;3.72;;;14.00;1.00;;;;;;6277457;22;37759;-79
2024/03/19 09:45:22;;;;;;;12.13;3.80;;;14.00;1.00;;;;;;6276726;22;40783;-79
2024/03/19 09:47:48;;;;;;;17.90;4.20;;;14.00;1.00;;;;;;6306457;22;39646;-79
2024/03/19 09:50:16;;;;;;;14.77;4.00;;;14.00;1.00;;;;;;6306392;22;38041;-79
2024/03/19 09:52:44;;;;;;;11.00;3.88;;;14.00;1.00;;;;;;6304233;22;37031;-79
2024/03/19 09:55:15;;;;;;;10.65;4.30;;;14.20;1.00;;;;;;6276663;22;41052;-79
2024/03/19 09:57:46;;;;;;;13.90;3.83;;;14.40;1.00;;;;;;6279603;22;37830;-79
2024/03/19 10:00:33;;;;;;;9.30;3.63;;;14.40;1.00;;;;;;6308647;22;38418;-79
2024/03/19 10:02:59;;;;;;;11.02;3.15;;;14.60;1.00;;;;;;6279803;22;47005;-79
2024/03/19 10:05:26;;;;;;;13.73;3.25;;;14.70;1.00;;;;;;6308098;22;39922;-79
2024/03/19 10:07:56;;;;;;;10.88;3.17;;;14.80;1.00;;;;;;6281142;22;40334;-80
2024/03/19 10:10:22;;;;;;;9.80;3.58;;;15.00;1.00;;;;;;6306625;22;39562;-80
2024/03/19 10:12:48;;;;;;;14.80;3.28;;;15.20;1.00;;;;;;6280761;22;36008;-79
2024/03/19 10:15:22;;;;;;;16.77;3.60;;;15.30;1.00;;;;;;6277731;22;39437;-80
2024/03/19 10:17:48;;;;;;;9.75;3.40;;;15.50;1.00;;;;;;6279601;22;37791;-79
2024/03/19 10:20:16;;;;;;;14.32;3.50;;;15.70;1.00;;;;;;6277052;22;40119;-80
2024/03/19 10:22:45;;;;;;;12.32;3.25;;;15.80;1.00;;;;;;6307801;22;37739;-77
2024/03/19 10:25:16;;;;;;;11.65;4.05;;;16.00;1.00;;;;;;6307033;22;39046;-77
2024/03/19 10:27:47;;;;;;;11.52;3.05;;;16.20;1.00;;;;;;6280864;22;39199;-77
2024/03/19 10:30:15;;;;;;;8.45;2.58;;;16.20;1.00;;;;;;6306830;22;39506;-78
2024/03/19 10:32:42;;;;;;;8.98;2.83;;;16.30;1.00;;;;;;6279052;22;35940;-77
2024/03/19 10:35:23;;;;;;;8.75;2.70;;;16.10;1.00;;;;;;6277333;22;37811;-77
2024/03/19 10:37:51;;;;;;;11.85;2.63;;;16.10;1.00;;;;;;6306511;22;39319;-77
2024/03/19 10:40:19;;;;;;;11.20;2.80;;;16.00;1.00;;;;;;6304409;22;38636;-77
2024/03/19 10:42:48;;;;;;;13.32;2.90;;;16.00;1.00;;;;;;6277888;22;36069;-77
2024/03/19 10:45:21;;;;;;;8.40;2.65;;;16.00;1.00;;;;;;6275961;22;40604;-77
2024/03/19 10:47:49;;;;;;;7.22;1.95;;;16.10;1.00;;;;;;6277553;22;38938;-77
2024/03/19 10:50:17;;;;;;;11.25;2.67;;;16.00;1.00;;;;;;6277043;22;39693;-78
2024/03/19 10:53:01;;;;;;;13.75;2.67;;;16.10;1.00;;;;;;6278674;22;37957;-79
2024/03/19 10:55:29;;;;;;;9.80;2.22;;;16.00;1.00;;;;;;6276150;22;47034;-77
2024/03/19 10:58:03;;;;;;;9.30;2.55;;;16.20;1.00;;;;;;6279703;22;38970;-78
2024/03/19 11:00:30;;;;;;;11.30;2.97;;;16.30;1.00;;;;;;6277579;22;47120;-78
2024/03/19 11:03:02;;;;;;;11.93;2.42;;;16.40;1.00;;;;;;6279846;22;38445;-79
2024/03/19 11:05:28;;;;;;;12.02;2.67;;;16.50;1.00;;;;;;6279332;22;48145;-77
2024/03/19 11:07:56;;;;;;;9.00;2.55;;;16.50;1.00;;;;;;6311545;22;39092;-78
2024/03/19 11:10:26;;;;;;;10.38;3.63;;;16.40;1.00;;;;;;6297539;22;37167;-79
2024/03/19 11:12:57;;;;;;;9.02;3.00;;;16.20;1.00;;;;;;6297633;22;35856;-77
2024/03/19 11:15:24;;;;;;;8.98;3.03;;;16.30;1.00;;;;;;6315938;22;38706;-80
2024/03/19 11:17:50;;;;;;;9.95;3.40;;;16.70;1.00;;;;;;6297369;22;38011;-79
2024/03/19 11:20:17;;;;;;;9.95;2.95;;;17.00;1.00;;;;;;6293079;22;37339;-79
2024/03/19 11:22:47;;;;;;;10.27;3.03;;;17.30;1.00;;;;;;6279725;22;38101;-79
2024/03/19 11:25:16;;;;;;;6.43;2.60;;;17.40;1.00;;;;;;6304754;22;39681;-78
2024/03/19 11:27:49;;;;;;;7.20;2.63;;;17.80;1.00;;;;;;6279190;22;40732;-78
2024/03/19 11:30:16;;;;;;;8.77;3.00;;;18.10;1.00;;;;;;6274910;22;38498;-78
2024/03/19 11:32:44;;;;;;;9.45;2.78;;;17.80;1.00;;;;;;6278823;22;37486;-78
2024/03/19 11:35:21;;;;;;;7.55;2.70;;;17.50;1.00;;;;;;6304977;22;38923;-78
2024/03/19 11:37:51;;;;;;;9.02;2.90;;;17.60;1.00;;;;;;6277954;22;40474;-79
2024/03/19 11:40:18;;;;;;;8.35;2.83;;;17.40;97.70;;;;;;6274592;22;39315;-78
2024/03/19 11:42:47;;;;;;;9.63;3.10;;;17.40;99.90;;;;;;6278020;22;35936;-79
2024/03/19 11:45:17;;;;;;;10.77;2.88;;;17.50;99.90;;;;;;6274711;22;40542;-78
2024/03/19 11:47:44;;;;;;;9.38;2.85;;;17.80;99.90;;;;;;6278718;22;40349;-79
2024/03/19 11:50:18;;;;;;;9.38;2.67;;;17.80;1.00;;;;;;6276505;22;39167;-79
2024/03/19 11:52:50;;;;;;;12.25;3.60;;;17.40;12.50;;;;;;6280927;22;37475;-78
2024/03/19 11:55:16;;;;;;;;;;;17.20;99.90;;;;;;6276988;22;38508;-78
2024/03/19 11:57:43;;;;;;;12.80;4.07;;;17.40;99.90;;;;;;6279637;22;38048;-77
2024/03/19 12:00:12;;;;;;;11.73;3.42;;;17.70;56.00;;;;;;6278852;22;39731;-77
2024/03/19 12:02:40;;;;;;;8.68;2.78;;;17.80;99.90;;;;;;6277951;22;36973;-77
2024/03/19 12:05:16;;;;;;;9.32;3.13;;;18.10;1.00;;;;;;6278853;22;38557;-77
2024/03/19 12:07:47;;;;;;;9.77;2.97;;;17.80;99.90;;;;;;6307080;22;39872;-78
2024/03/19 12:10:22;;;;;;;7.30;2.72;;;17.50;1.00;;;;;;6305564;22;39418;-77
2024/03/19 12:12:53;;;;;;;11.38;3.28;;;17.60;1.00;;;;;;6279470;22;38784;-78
2024/03/19 12:15:22;;;;;;;9.90;2.47;;;18.10;1.00;;;;;;6305732;22;40459;-78
2024/03/19 12:17:49;;;;;;;6.22;2.72;;;18.20;99.90;;;;;;6279834;22;39466;-78
2024/03/19 12:20:17;;;;;;;6.95;2.60;;;18.40;1.00;;;;;;6279032;22;38419;-78
2024/03/19 12:22:51;;;;;;;6.50;2.22;;;18.50;47.80;;;;;;6280317;22;36164;-78
2024/03/19 12:25:22;;;;;;;5.95;2.35;;;18.70;91.70;;;;;;6276491;22;40045;-78
2024/03/19 12:27:50;;;;;;;7.75;2.60;;;18.80;1.00;;;;;;6278846;22;40584;-78
2024/03/19 12:30:22;;;;;;;8.13;2.28;;;18.80;1.00;;;;;;6274776;22;39263;-78
2024/03/19 12:32:59;;;;;;;8.85;2.30;;;18.70;1.00;;;;;;6277239;22;37793;-79
2024/03/19 12:35:33;;;;;;;8.48;2.67;;;19.10;86.80;;;;;;6304202;22;39263;-78
2024/03/19 12:38:00;;;;;;;5.65;2.40;;;19.00;99.90;;;;;;6306217;22;38741;-79
2024/03/19 12:40:27;;;;;;;8.25;2.55;;;18.60;1.00;;;;;;6301917;22;39156;-79
2024/03/19 12:42:56;;;;;;;8.52;2.92;;;18.50;1.00;;;;;;6275827;22;36196;-79
2024/03/19 12:45:24;;;;;;;9.27;2.90;;;18.20;1.00;;;;;;6270483;22;39819;-79
2024/03/19 12:47:50;;;;;;;7.43;3.00;;;18.30;1.00;;;;;;6275033;22;40284;-79
2024/03/19 12:50:21;;;;;;;6.90;3.35;;;18.10;1.00;;;;;;6275379;22;39241;-79